< < Back
Terminal Aerodrome Forecast


Current Version              Previous Versions:   1  2  3  4  5  6  7  8  9  

Terminal Aerodrome Forecast

911
FTUS42 KTAE 200500
TAFVLD
TAF
KVLD 200525Z 2006/2106 01008KT P6SM OVC010
     FM201400 02012KT P6SM BKN015 OVC025
     FM201700 02010KT P6SM SCT020 BKN040
     FM210000 05005KT P6SM SCT250=

Latest METAR

422
SAUS70 KWBC 200800 RRM
MTRVLD
METAR KVLD 200753Z AUTO 02010KT 10SM OVC011 14/12 A3005 RMK AO2 RAE29
SLP182 P0000 T01440117


USA.gov is the U.S. government's official web portal to all federal, state and local government web resources and services.